createdAt,value
2019-01-14T00:02:01.220Z,29.40
2019-01-14T00:04:06.679Z,36.03
2019-01-14T00:06:11.590Z,25.63
2019-01-14T00:08:16.408Z,23.93
2019-01-14T00:10:21.226Z,23.80
2019-01-14T00:12:26.111Z,14.47
2019-01-14T00:14:31.617Z,10.30
2019-01-14T00:16:36.625Z,9.17
2019-01-14T00:18:41.415Z,5.27
2019-01-14T00:20:46.412Z,7.53
2019-01-14T00:22:51.286Z,13.43
2019-01-14T00:24:56.155Z,8.13
2019-01-14T00:27:01.747Z,11.23
2019-01-14T00:29:06.518Z,11.27
2019-01-14T00:31:11.431Z,6.67
2019-01-14T00:33:17.992Z,10.60
2019-01-14T00:35:22.906Z,8.47
2019-01-14T00:37:27.715Z,9.30
2019-01-14T00:39:32.658Z,17.03
2019-01-14T00:41:38.395Z,14.23
2019-01-14T00:43:43.360Z,17.57
2019-01-14T00:45:48.305Z,17.73
2019-01-14T00:47:53.265Z,30.57
2019-01-14T00:49:58.109Z,24.60
2019-01-14T00:52:03.304Z,23.37
2019-01-14T00:54:08.190Z,20.73
2019-01-14T00:56:13.120Z,25.33
2019-01-14T00:58:18.023Z,26.73
2019-01-14T01:00:24.739Z,25.00
2019-01-14T01:02:29.551Z,25.67
2019-01-14T01:04:34.616Z,23.73
2019-01-14T01:06:39.310Z,29.30
2019-01-14T01:08:44.003Z,23.93
2019-01-14T01:10:49.135Z,30.83
2019-01-14T01:12:53.818Z,30.50
2019-01-14T01:14:58.865Z,25.20
2019-01-14T01:17:03.899Z,19.17
2019-01-14T01:19:08.856Z,22.57
2019-01-14T01:21:13.641Z,24.23
2019-01-14T01:23:18.290Z,22.13
2019-01-14T01:25:23.000Z,25.00
2019-01-14T01:27:28.415Z,24.27
2019-01-14T01:29:34.565Z,23.87
2019-01-14T01:31:39.860Z,20.60
2019-01-14T01:33:44.918Z,22.20
2019-01-14T01:35:49.626Z,18.67
2019-01-14T01:37:54.351Z,17.47
2019-01-14T01:39:59.073Z,26.57
2019-01-14T01:42:04.115Z,19.17
2019-01-14T01:44:09.200Z,22.00
2019-01-14T01:46:13.869Z,13.37
2019-01-14T01:48:18.598Z,14.00
2019-01-14T01:50:23.636Z,17.67
2019-01-14T01:52:29.761Z,22.83
2019-01-14T01:54:34.619Z,28.80
2019-01-14T01:56:39.647Z,19.00
2019-01-14T01:58:44.798Z,19.20
2019-01-14T02:00:49.540Z,21.23
2019-01-14T02:02:54.604Z,19.97
2019-01-14T02:04:59.631Z,21.23
2019-01-14T02:07:04.945Z,20.40
2019-01-14T02:09:09.669Z,21.30
2019-01-14T02:11:14.711Z,26.37
2019-01-14T02:13:19.377Z,25.97
2019-01-14T02:15:24.173Z,21.10
2019-01-14T02:17:28.926Z,25.00
2019-01-14T02:19:33.623Z,33.67
2019-01-14T02:21:38.735Z,22.53
2019-01-14T02:23:43.449Z,22.93
2019-01-14T02:25:48.791Z,21.40
2019-01-14T02:27:53.731Z,18.77
2019-01-14T02:29:58.442Z,21.83
2019-01-14T02:32:03.188Z,35.37
2019-01-14T02:34:08.278Z,11.70
2019-01-14T02:36:13.027Z,17.33
2019-01-14T02:38:18.691Z,23.63
2019-01-14T02:40:23.824Z,21.83
2019-01-14T02:42:47.729Z,13.90
2019-01-14T02:44:52.603Z,19.50
2019-01-14T02:46:57.387Z,12.30
2019-01-14T02:49:02.846Z,18.00
2019-01-14T02:51:11.351Z,19.30
2019-01-14T02:53:16.502Z,21.67
2019-01-14T02:55:21.228Z,22.80
2019-01-14T02:57:26.483Z,15.37
2019-01-14T02:59:31.575Z,16.30
2019-01-14T03:01:38.421Z,9.73
2019-01-14T03:03:43.233Z,20.50
2019-01-14T03:05:48.162Z,15.33
2019-01-14T03:07:52.912Z,17.93
2019-01-14T03:09:57.996Z,9.17
2019-01-14T03:12:02.735Z,9.10
2019-01-14T03:14:07.812Z,17.93
2019-01-14T03:16:12.957Z,15.90
2019-01-14T03:18:17.654Z,17.20
2019-01-14T03:20:22.900Z,9.37
2019-01-14T03:22:27.658Z,13.53
2019-01-14T03:24:32.643Z,12.43
2019-01-14T03:26:37.423Z,16.70
2019-01-14T03:28:42.080Z,6.10
2019-01-14T03:30:46.814Z,9.17
2019-01-14T03:32:52.317Z,9.10
2019-01-14T03:34:56.997Z,11.87
2019-01-14T03:37:05.587Z,6.83
2019-01-14T03:39:08.557Z,13.70
2019-01-14T03:41:13.303Z,8.33
2019-01-14T03:43:18.072Z,5.70
2019-01-14T03:45:22.760Z,7.40
2019-01-14T03:47:27.521Z,7.97
2019-01-14T03:49:33.131Z,13.40
2019-01-14T03:51:38.041Z,8.23
2019-01-14T03:53:43.346Z,6.03
2019-01-14T03:55:48.687Z,8.73
2019-01-14T03:57:54.863Z,12.27
2019-01-14T04:00:00.299Z,12.23
2019-01-14T04:02:09.245Z,13.50
2019-01-14T04:04:14.126Z,11.17
2019-01-14T04:06:18.996Z,5.60
2019-01-14T04:08:24.441Z,15.40
2019-01-14T04:10:31.557Z,8.07
2019-01-14T04:12:36.714Z,5.20
2019-01-14T04:14:42.713Z,6.90
2019-01-14T04:16:48.187Z,9.47
2019-01-14T04:19:14.666Z,8.23
2019-01-14T04:21:19.392Z,4.60
2019-01-14T04:23:25.281Z,9.20
2019-01-14T04:25:30.169Z,9.40
2019-01-14T04:27:35.368Z,5.97
2019-01-14T04:29:41.804Z,7.87
2019-01-14T04:31:46.930Z,8.33
2019-01-14T04:33:51.661Z,9.67
2019-01-14T04:35:56.389Z,10.50
2019-01-14T04:38:01.196Z,8.93
2019-01-14T04:40:06.351Z,4.83
2019-01-14T04:42:11.119Z,9.80
2019-01-14T04:44:16.183Z,10.47
2019-01-14T04:46:21.244Z,9.67
2019-01-14T04:48:27.307Z,9.47
2019-01-14T04:50:32.113Z,10.40
2019-01-14T04:52:36.870Z,13.03
2019-01-14T04:54:41.889Z,13.20
2019-01-14T04:56:46.950Z,14.77
2019-01-14T04:58:51.959Z,17.87
2019-01-14T05:00:56.711Z,9.27
2019-01-14T05:03:01.757Z,16.97
2019-01-14T05:05:06.885Z,11.73
2019-01-14T05:07:11.615Z,14.87
2019-01-14T05:09:16.586Z,12.37
2019-01-14T05:11:21.736Z,11.27
2019-01-14T05:13:27.012Z,14.73
2019-01-14T05:15:31.736Z,12.17
2019-01-14T05:17:40.196Z,12.17
2019-01-14T05:19:45.220Z,13.57
2019-01-14T05:21:50.110Z,11.43
2019-01-14T05:23:54.865Z,14.73
2019-01-14T05:25:59.545Z,12.63
2019-01-14T05:28:04.291Z,17.00
2019-01-14T05:30:09.772Z,10.63
2019-01-14T05:32:14.530Z,16.00
2019-01-14T05:34:19.299Z,12.90
2019-01-14T05:36:24.489Z,12.57
2019-01-14T05:38:29.951Z,23.33
2019-01-14T05:40:34.671Z,14.13
2019-01-14T05:42:39.385Z,12.70
2019-01-14T05:44:44.093Z,14.37
2019-01-14T05:46:48.806Z,15.23
2019-01-14T05:48:53.833Z,22.20
2019-01-14T05:50:58.527Z,12.67
2019-01-14T05:53:03.239Z,15.37
2019-01-14T05:55:08.318Z,16.47
2019-01-14T05:57:13.099Z,14.33
2019-01-14T05:59:17.814Z,12.40
2019-01-14T06:01:24.018Z,22.90
2019-01-14T06:03:28.914Z,14.60
2019-01-14T06:05:34.081Z,16.73
2019-01-14T06:07:44.898Z,12.57
2019-01-14T06:09:45.914Z,14.03
2019-01-14T06:11:50.886Z,18.57
2019-01-14T06:13:55.661Z,17.70
2019-01-14T06:16:01.427Z,11.33
2019-01-14T06:18:07.766Z,18.07
2019-01-14T06:20:15.281Z,11.80
2019-01-14T06:22:23.467Z,16.50
2019-01-14T06:24:28.242Z,12.50
2019-01-14T06:26:33.521Z,10.27
2019-01-14T06:28:38.236Z,7.10
2019-01-14T06:30:43.344Z,10.20
2019-01-14T06:32:48.151Z,10.70
2019-01-14T06:34:52.900Z,16.63
2019-01-14T06:36:57.642Z,9.07
2019-01-14T06:39:02.376Z,10.43
2019-01-14T06:41:07.150Z,3.03
2019-01-14T06:43:12.200Z,7.80
2019-01-14T06:45:17.488Z,12.60
2019-01-14T06:47:22.280Z,15.07
2019-01-14T06:49:26.996Z,11.13
2019-01-14T06:51:32.074Z,10.40
2019-01-14T06:53:36.769Z,12.10
2019-01-14T06:55:41.634Z,10.93
2019-01-14T06:57:47.018Z,7.70
2019-01-14T06:59:51.733Z,9.30
2019-01-14T07:01:56.452Z,8.20
2019-01-14T07:04:01.193Z,5.60
2019-01-14T07:06:05.985Z,10.50
2019-01-14T07:08:11.135Z,12.20
2019-01-14T07:10:19.924Z,10.00
2019-01-14T07:12:24.596Z,12.57
2019-01-14T07:14:29.369Z,13.27
2019-01-14T07:16:34.169Z,13.20
2019-01-14T07:18:38.904Z,12.37
2019-01-14T07:20:45.300Z,16.10
2019-01-14T07:22:50.540Z,9.97
2019-01-14T07:24:55.302Z,9.00
2019-01-14T07:27:00.060Z,9.50
2019-01-14T07:29:06.367Z,18.50
2019-01-14T07:31:11.858Z,19.23
2019-01-14T07:33:16.575Z,10.30
2019-01-14T07:35:21.678Z,12.40
2019-01-14T07:37:26.473Z,12.57
2019-01-14T07:39:31.188Z,12.50
2019-01-14T07:41:36.228Z,13.20
2019-01-14T07:43:41.304Z,11.37
2019-01-14T07:45:46.019Z,12.63
2019-01-14T07:47:50.884Z,14.43
2019-01-14T07:49:55.659Z,13.27
2019-01-14T07:52:00.323Z,12.57
2019-01-14T07:54:05.714Z,20.33
2019-01-14T07:56:10.782Z,19.27
2019-01-14T07:58:15.482Z,14.57
2019-01-14T08:00:27.638Z,22.90
2019-01-14T08:02:32.302Z,18.67
2019-01-14T08:04:37.320Z,10.43
2019-01-14T08:06:42.013Z,10.80
2019-01-14T08:08:46.829Z,10.43
2019-01-14T08:10:51.731Z,11.67
2019-01-14T08:12:56.423Z,16.67
2019-01-14T08:15:01.132Z,16.43
2019-01-14T08:17:06.174Z,13.30
2019-01-14T08:19:10.859Z,16.30
2019-01-14T08:21:15.595Z,19.43
2019-01-14T08:23:20.763Z,11.50
2019-01-14T08:25:25.415Z,13.77
2019-01-14T08:27:30.487Z,13.97
2019-01-14T08:29:35.166Z,18.90
2019-01-14T08:31:40.855Z,19.70
2019-01-14T08:33:45.593Z,19.00
2019-01-14T08:35:50.487Z,14.60
2019-01-14T08:37:55.207Z,17.53
2019-01-14T08:39:59.912Z,14.13
2019-01-14T08:42:05.001Z,11.87
2019-01-14T08:44:10.049Z,5.70
2019-01-14T08:46:14.938Z,11.70
2019-01-14T08:48:19.666Z,9.20
2019-01-14T08:50:24.417Z,13.80
2019-01-14T08:52:29.104Z,10.60
2019-01-14T08:54:33.840Z,15.93
2019-01-14T08:56:38.533Z,11.13
2019-01-14T08:58:43.981Z,14.00
2019-01-14T09:00:48.804Z,7.83
2019-01-14T09:02:53.601Z,9.60
2019-01-14T09:04:58.410Z,10.23
2019-01-14T09:07:03.590Z,6.63
2019-01-14T09:09:09.632Z,11.80
2019-01-14T09:11:14.793Z,9.80
2019-01-14T09:13:19.500Z,10.73
2019-01-14T09:15:24.687Z,13.90
2019-01-14T09:17:29.574Z,11.43
2019-01-14T09:19:34.231Z,10.73
2019-01-14T09:21:39.043Z,13.20
2019-01-14T09:23:43.839Z,9.70
2019-01-14T09:25:53.756Z,10.70
2019-01-14T09:27:55.322Z,12.80
2019-01-14T09:30:00.428Z,8.10
2019-01-14T09:32:06.046Z,10.00
2019-01-14T09:34:11.088Z,8.20
2019-01-14T09:36:16.015Z,8.53
2019-01-14T09:38:21.487Z,6.43
2019-01-14T09:40:27.666Z,8.33
2019-01-14T09:42:32.360Z,5.40
2019-01-14T09:44:37.238Z,6.00
2019-01-14T09:46:42.330Z,8.57
2019-01-14T09:48:47.051Z,8.77
2019-01-14T09:50:51.934Z,11.97
2019-01-14T09:52:56.629Z,7.37
2019-01-14T09:55:05.573Z,8.73
2019-01-14T09:57:08.234Z,7.07
2019-01-14T09:59:12.960Z,8.13
2019-01-14T10:01:17.720Z,9.40
2019-01-14T10:03:22.455Z,10.17
2019-01-14T10:05:27.317Z,7.00
2019-01-14T10:07:32.244Z,12.70
2019-01-14T10:09:36.937Z,13.93
2019-01-14T10:11:41.825Z,10.03
2019-01-14T10:13:47.010Z,12.60
2019-01-14T10:15:51.814Z,13.20
2019-01-14T10:18:15.613Z,8.03
2019-01-14T10:20:20.442Z,9.68
2019-01-14T10:22:25.126Z,10.40
2019-01-14T10:24:30.196Z,12.53
2019-01-14T10:26:34.868Z,9.80
2019-01-14T10:28:39.610Z,13.30
2019-01-14T10:30:44.387Z,15.80
2019-01-14T10:32:49.164Z,10.67
2019-01-14T10:34:54.944Z,9.53
2019-01-14T10:36:59.640Z,6.97
2019-01-14T10:39:06.020Z,12.70
2019-01-14T10:41:11.130Z,11.87
2019-01-14T10:43:15.812Z,7.47
2019-01-14T10:45:22.601Z,8.00
2019-01-14T10:47:27.341Z,5.47
2019-01-14T10:49:32.052Z,5.53
2019-01-14T10:51:36.780Z,7.40
2019-01-14T10:53:41.503Z,6.53
2019-01-14T10:55:46.374Z,7.00
2019-01-14T10:57:51.214Z,7.80
2019-01-14T10:59:56.014Z,5.07
2019-01-14T11:02:00.726Z,6.60
2019-01-14T11:04:06.196Z,5.97
2019-01-14T11:06:11.166Z,5.97
2019-01-14T11:08:16.210Z,8.53
2019-01-14T11:10:21.004Z,16.00
2019-01-14T11:12:25.734Z,5.20
2019-01-14T11:14:30.500Z,10.43
2019-01-14T11:16:35.221Z,11.57
2019-01-14T11:18:49.193Z,8.30
2019-01-14T11:20:54.367Z,11.67
2019-01-14T11:22:59.806Z,8.03
2019-01-14T11:25:05.649Z,8.47
2019-01-14T11:27:10.413Z,15.87
2019-01-14T11:29:15.074Z,10.00
2019-01-14T11:31:19.996Z,12.73
2019-01-14T11:33:25.199Z,7.07
2019-01-14T11:35:30.018Z,8.07
2019-01-14T11:37:34.744Z,7.37
2019-01-14T11:39:40.745Z,5.43
2019-01-14T11:41:45.474Z,10.83
2019-01-14T11:43:50.584Z,7.90
2019-01-14T11:45:55.360Z,13.73
2019-01-14T11:48:00.116Z,7.30
2019-01-14T11:50:07.750Z,10.17
2019-01-14T11:52:12.883Z,5.87
2019-01-14T11:54:17.616Z,11.87
2019-01-14T11:56:22.409Z,17.57
2019-01-14T11:58:27.559Z,10.43
2019-01-14T12:00:36.546Z,15.53
2019-01-14T12:02:39.751Z,14.13
2019-01-14T12:04:44.544Z,13.57
2019-01-14T12:06:50.213Z,21.57
2019-01-14T12:08:55.290Z,12.73
2019-01-14T12:11:00.024Z,13.80
2019-01-14T12:13:04.939Z,13.50
2019-01-14T12:15:16.420Z,8.97
2019-01-14T12:17:21.198Z,11.27
2019-01-14T12:19:26.003Z,10.53
2019-01-14T12:21:30.769Z,9.23
2019-01-14T12:23:35.994Z,11.20
2019-01-14T12:25:41.095Z,17.20
2019-01-14T12:27:45.871Z,10.90
2019-01-14T12:29:50.686Z,10.93
2019-01-14T12:31:55.551Z,6.90
2019-01-14T12:34:00.273Z,12.10
2019-01-14T12:36:06.331Z,8.27
2019-01-14T12:38:10.996Z,13.23
2019-01-14T12:40:15.855Z,8.70
2019-01-14T12:42:20.918Z,6.80
2019-01-14T12:44:25.667Z,4.57
2019-01-14T12:46:30.421Z,10.83
2019-01-14T12:48:35.163Z,5.70
2019-01-14T12:50:39.933Z,9.77
2019-01-14T12:52:45.209Z,7.60
2019-01-14T12:54:49.867Z,7.67
2019-01-14T12:56:54.901Z,7.63
2019-01-14T12:58:59.654Z,7.20
2019-01-14T13:01:06.373Z,9.30
2019-01-14T13:03:11.261Z,7.10
2019-01-14T13:05:17.181Z,6.83
2019-01-14T13:07:22.170Z,8.30
2019-01-14T13:09:27.029Z,8.03
2019-01-14T13:11:31.670Z,11.53
2019-01-14T13:13:36.818Z,7.70
2019-01-14T13:15:41.907Z,5.23
2019-01-14T13:17:46.553Z,9.63
2019-01-14T13:19:51.633Z,4.97
2019-01-14T13:21:57.561Z,7.00
2019-01-14T13:24:02.656Z,8.30
2019-01-14T13:26:07.698Z,4.60
2019-01-14T13:28:12.415Z,6.33
2019-01-14T13:30:19.976Z,8.63
2019-01-14T13:32:25.060Z,3.23
2019-01-14T13:34:29.802Z,14.20
2019-01-14T13:36:34.999Z,5.57
2019-01-14T13:38:39.933Z,4.43
2019-01-14T13:40:44.942Z,6.03
2019-01-14T13:42:49.910Z,6.90
2019-01-14T13:44:54.817Z,4.77
2019-01-14T13:46:59.698Z,7.00
2019-01-14T13:49:04.850Z,4.10
2019-01-14T13:51:09.889Z,8.80
2019-01-14T13:53:16.717Z,2.83
2019-01-14T13:55:21.871Z,8.07
2019-01-14T13:57:26.939Z,11.53
2019-01-14T13:59:31.815Z,9.33
2019-01-14T14:01:36.841Z,8.50
2019-01-14T14:03:41.629Z,18.30
2019-01-14T14:05:46.370Z,9.23
2019-01-14T14:07:51.129Z,3.77
2019-01-14T14:09:55.902Z,9.40
2019-01-14T14:12:00.937Z,6.43
2019-01-14T14:14:05.737Z,6.27
2019-01-14T14:16:10.953Z,3.23
2019-01-14T14:18:15.706Z,6.27
2019-01-14T14:20:39.467Z,6.17
2019-01-14T14:23:03.227Z,12.17
2019-01-14T14:25:08.682Z,5.17
2019-01-14T14:27:13.842Z,8.73
2019-01-14T14:29:18.616Z,6.23
2019-01-14T14:31:23.558Z,7.60
2019-01-14T14:33:29.034Z,11.33
2019-01-14T14:35:33.868Z,6.17
2019-01-14T14:37:38.827Z,9.77
2019-01-14T14:39:48.481Z,7.20
2019-01-14T14:41:50.803Z,11.77
2019-01-14T14:43:55.603Z,17.50
2019-01-14T14:46:00.334Z,23.73
2019-01-14T14:48:05.578Z,18.07
2019-01-14T14:50:12.290Z,8.20
2019-01-14T14:52:17.568Z,11.40
2019-01-14T14:54:22.326Z,12.70
2019-01-14T14:56:27.033Z,12.63
2019-01-14T14:58:31.742Z,7.37
2019-01-14T15:00:36.814Z,10.03
2019-01-14T15:02:41.566Z,6.13
2019-01-14T15:04:46.368Z,6.43
2019-01-14T15:06:51.432Z,7.90
2019-01-14T15:08:56.779Z,7.60
2019-01-14T15:11:01.831Z,11.43
2019-01-14T15:13:06.660Z,9.70
2019-01-14T15:15:13.138Z,8.17
2019-01-14T15:17:18.153Z,9.33
2019-01-14T15:19:24.397Z,12.67
2019-01-14T15:21:29.118Z,13.20
2019-01-14T15:23:34.179Z,10.00
2019-01-14T15:25:38.897Z,9.80
2019-01-14T15:27:44.329Z,5.80
2019-01-14T15:29:50.440Z,6.67
2019-01-14T15:31:55.265Z,6.23
2019-01-14T15:34:00.025Z,10.10
2019-01-14T15:36:06.313Z,8.53
2019-01-14T15:38:11.067Z,7.63
2019-01-14T15:40:16.459Z,6.70
2019-01-14T15:42:21.326Z,6.90
2019-01-14T15:44:26.167Z,5.87
2019-01-14T15:46:31.386Z,10.70
2019-01-14T15:48:36.529Z,13.40
2019-01-14T15:50:41.426Z,25.93
2019-01-14T15:52:46.300Z,13.87
2019-01-14T15:54:51.004Z,7.73
2019-01-14T15:56:55.928Z,5.90
2019-01-14T15:59:00.631Z,9.90
2019-01-14T16:01:05.546Z,5.67
2019-01-14T16:03:10.415Z,3.53
2019-01-14T16:05:15.851Z,5.20
2019-01-14T16:07:20.637Z,5.70
2019-01-14T16:09:25.523Z,10.00
2019-01-14T16:11:30.602Z,16.33
2019-01-14T16:13:35.403Z,11.17
2019-01-14T16:15:41.037Z,16.07
2019-01-14T16:17:46.661Z,31.20
2019-01-14T16:19:51.569Z,19.37
2019-01-14T16:21:56.848Z,7.67
2019-01-14T16:24:01.952Z,8.07
2019-01-14T16:26:06.654Z,4.63
2019-01-14T16:28:11.697Z,12.00
2019-01-14T16:30:18.726Z,5.47
2019-01-14T16:32:23.678Z,8.73
2019-01-14T16:34:28.624Z,10.50
2019-01-14T16:36:33.326Z,4.63
2019-01-14T16:38:38.035Z,13.43
2019-01-14T16:40:42.932Z,4.53
2019-01-14T16:42:47.593Z,9.87
2019-01-14T16:44:52.421Z,23.50
2019-01-14T16:46:57.169Z,10.67
2019-01-14T16:49:02.010Z,11.67
2019-01-14T16:51:06.781Z,12.23
2019-01-14T16:53:11.975Z,13.03
2019-01-14T16:55:18.844Z,20.80
2019-01-14T16:57:23.762Z,15.57
2019-01-14T16:59:30.067Z,12.23
2019-01-14T17:01:34.776Z,25.27
2019-01-14T17:03:39.589Z,10.60
2019-01-14T17:05:44.819Z,10.53
2019-01-14T17:07:49.554Z,14.10
2019-01-14T17:09:54.307Z,10.70
2019-01-14T17:11:58.990Z,13.90
2019-01-14T17:14:04.320Z,9.30
2019-01-14T17:16:09.191Z,8.77
2019-01-14T17:18:16.534Z,13.63
2019-01-14T17:20:21.659Z,7.60
2019-01-14T17:22:26.484Z,5.50
2019-01-14T17:24:31.372Z,9.50
2019-01-14T17:26:36.190Z,8.40
2019-01-14T17:28:40.941Z,5.00
2019-01-14T17:30:46.259Z,3.90
2019-01-14T17:32:51.095Z,14.30
2019-01-14T17:34:56.133Z,13.83
2019-01-14T17:37:01.859Z,13.77
2019-01-14T17:39:08.967Z,13.87
2019-01-14T17:41:13.849Z,11.27
2019-01-14T17:43:18.656Z,11.40
2019-01-14T17:45:24.788Z,9.23
2019-01-14T17:47:29.546Z,13.07
2019-01-14T17:49:34.418Z,4.40
2019-01-14T17:51:39.349Z,6.10
2019-01-14T17:53:44.181Z,5.03
2019-01-14T17:55:48.947Z,4.17
2019-01-14T17:57:53.736Z,6.50
2019-01-14T17:59:58.538Z,10.23
2019-01-14T18:02:03.842Z,4.70
2019-01-14T18:04:08.973Z,6.50
2019-01-14T18:06:14.130Z,6.37
2019-01-14T18:08:26.750Z,10.70
2019-01-14T18:10:39.695Z,6.83
2019-01-14T18:12:39.148Z,5.63
2019-01-14T18:14:44.270Z,6.13
2019-01-14T18:16:49.368Z,5.60
2019-01-14T18:18:54.541Z,7.47
2019-01-14T18:21:05.437Z,8.73
2019-01-14T18:23:06.316Z,8.10
2019-01-14T18:25:11.215Z,5.83
2019-01-14T18:27:16.058Z,8.93
2019-01-14T18:29:20.781Z,9.67
2019-01-14T18:31:25.674Z,11.10
2019-01-14T18:33:30.415Z,8.70
2019-01-14T18:35:35.140Z,8.03
2019-01-14T18:37:40.192Z,11.23
2019-01-14T18:39:45.189Z,17.33
2019-01-14T18:41:49.892Z,5.53
2019-01-14T18:43:54.968Z,6.43
2019-01-14T18:46:00.166Z,5.27
2019-01-14T18:48:07.622Z,8.20
2019-01-14T18:50:15.036Z,15.80
2019-01-14T18:52:19.866Z,7.17
2019-01-14T18:54:28.290Z,19.53
2019-01-14T18:56:33.040Z,7.37
2019-01-14T18:58:37.876Z,17.07
2019-01-14T19:01:02.426Z,10.43
2019-01-14T19:03:07.492Z,34.57
2019-01-14T19:05:12.668Z,51.80
2019-01-14T19:07:18.177Z,40.27
2019-01-14T19:09:23.471Z,53.90
2019-01-14T19:11:29.924Z,37.00
2019-01-14T19:13:34.955Z,29.37
2019-01-14T19:15:40.607Z,51.33
2019-01-14T19:17:45.918Z,29.80
2019-01-14T19:19:51.251Z,37.60
2019-01-14T19:21:56.320Z,21.20
2019-01-14T19:24:06.052Z,22.47
2019-01-14T19:26:10.787Z,29.23
2019-01-14T19:28:16.233Z,22.17
2019-01-14T19:30:21.643Z,30.53
2019-01-14T19:32:27.386Z,20.70
2019-01-14T19:34:32.248Z,13.70
2019-01-14T19:36:38.905Z,6.57
2019-01-14T19:38:44.064Z,11.10
2019-01-14T19:40:49.123Z,14.20
2019-01-14T19:42:55.288Z,26.20
2019-01-14T19:45:00.871Z,23.53
2019-01-14T19:47:05.676Z,19.67
2019-01-14T19:49:11.247Z,24.60
2019-01-14T19:51:16.221Z,14.67
2019-01-14T19:53:22.140Z,63.67
2019-01-14T19:55:27.516Z,26.60
2019-01-14T19:57:32.602Z,18.60
2019-01-14T19:59:37.989Z,26.23
2019-01-14T20:01:43.012Z,27.37
2019-01-14T20:03:48.087Z,45.47
2019-01-14T20:05:53.128Z,21.33
2019-01-14T20:07:58.049Z,16.27
2019-01-14T20:10:04.325Z,24.23
2019-01-14T20:12:09.787Z,24.83
2019-01-14T20:14:15.027Z,17.83
2019-01-14T20:16:19.901Z,17.73
2019-01-14T20:18:26.128Z,27.33
2019-01-14T20:20:30.886Z,13.50
2019-01-14T20:22:35.710Z,19.73
2019-01-14T20:24:41.085Z,23.77
2019-01-14T20:26:56.347Z,11.50
2019-01-14T20:29:01.331Z,11.53
2019-01-14T20:31:06.658Z,9.77
2019-01-14T20:33:11.797Z,40.37
2019-01-14T20:35:18.674Z,14.03
2019-01-14T20:37:24.595Z,14.80
2019-01-14T20:39:29.377Z,10.03
2019-01-14T20:41:34.173Z,13.20
2019-01-14T20:43:38.986Z,23.67
2019-01-14T20:45:44.412Z,14.03
2019-01-14T20:47:49.434Z,10.60
2019-01-14T20:49:54.381Z,8.40
2019-01-14T20:51:59.219Z,12.53
2019-01-14T20:54:04.378Z,9.90
2019-01-14T20:56:09.173Z,9.70
2019-01-14T20:58:14.274Z,8.43
2019-01-14T21:00:23.577Z,14.57
2019-01-14T21:02:28.259Z,12.10
2019-01-14T21:04:33.202Z,13.60
2019-01-14T21:06:43.328Z,29.00
2019-01-14T21:08:48.454Z,23.23
2019-01-14T21:10:57.250Z,69.77
2019-01-14T21:13:02.052Z,38.10
2019-01-14T21:15:07.558Z,47.37
2019-01-14T21:17:12.624Z,42.97
2019-01-14T21:19:17.354Z,134.50
2019-01-14T21:21:22.786Z,228.40
2019-01-14T21:23:27.814Z,115.67
2019-01-14T21:25:32.534Z,48.20
2019-01-14T21:27:37.749Z,17.90
2019-01-14T21:29:42.806Z,17.93
2019-01-14T21:31:47.786Z,27.70
2019-01-14T21:33:52.523Z,16.60
2019-01-14T21:35:57.565Z,18.17
2019-01-14T21:38:02.301Z,12.17
2019-01-14T21:40:08.641Z,17.73
2019-01-14T21:42:13.360Z,15.07
2019-01-14T21:44:18.115Z,11.37
2019-01-14T21:46:22.878Z,22.50
2019-01-14T21:48:28.251Z,24.80
2019-01-14T21:50:33.075Z,21.53
2019-01-14T21:52:37.739Z,13.20
2019-01-14T21:54:42.610Z,12.83
2019-01-14T21:56:47.663Z,12.00
2019-01-14T21:58:52.315Z,22.73
2019-01-14T22:00:57.409Z,12.33
2019-01-14T22:03:02.106Z,14.53
2019-01-14T22:05:07.157Z,15.23
2019-01-14T22:07:12.272Z,18.27
2019-01-14T22:09:17.132Z,10.30
2019-01-14T22:11:21.879Z,10.97
2019-01-14T22:13:27.063Z,11.33
2019-01-14T22:15:31.913Z,14.03
2019-01-14T22:17:36.698Z,17.50
2019-01-14T22:19:41.434Z,11.43
2019-01-14T22:21:46.321Z,15.40
2019-01-14T22:23:51.444Z,8.23
2019-01-14T22:25:56.138Z,13.33
2019-01-14T22:28:00.930Z,16.23
2019-01-14T22:30:08.039Z,13.83
2019-01-14T22:32:12.755Z,16.87
2019-01-14T22:34:18.233Z,23.63
2019-01-14T22:36:23.008Z,15.50
2019-01-14T22:38:32.743Z,12.00
2019-01-14T22:40:37.505Z,16.03
2019-01-14T22:42:42.240Z,13.73
2019-01-14T22:44:48.741Z,11.37
2019-01-14T22:46:53.558Z,10.00
2019-01-14T22:48:58.306Z,15.10
2019-01-14T22:51:03.547Z,15.63
2019-01-14T22:53:09.091Z,19.07
2019-01-14T22:55:13.884Z,14.30
2019-01-14T22:57:19.042Z,12.77
2019-01-14T22:59:23.821Z,11.27
2019-01-14T23:01:56.021Z,11.60
2019-01-14T23:04:00.806Z,13.53
2019-01-14T23:06:05.793Z,14.20
2019-01-14T23:08:10.477Z,11.23
2019-01-14T23:10:15.210Z,16.33
2019-01-14T23:12:20.235Z,11.30
2019-01-14T23:20:40.561Z,13.83
2019-01-14T23:23:40.254Z,15.53
2019-01-14T23:26:37.125Z,14.20
2019-01-14T23:34:52.674Z,19.63
2019-01-14T23:38:04.336Z,9.50
2019-01-14T23:40:56.659Z,14.10
2019-01-14T23:53:47.158Z,17.20
